Time;durP1;ratioP1;P1;durP2;ratioP2;P2;SDS_P1;SDS_P2;PMS_P1;PMS_P2;Temp;Humidity;BMP_temperature;BMP_pressure;BME280_temperature;BME280_humidity;BME280_pressure;Samples;Min_cycle;Max_cycle;Signal;HPM_P1;HPM_P2
2022/03/21 00:02:03;;;;;;;;;;;;;;;-2.56;52.45;102827.02;1905335;75;20108;-60
2022/03/21 00:04:31;;;;;;;;;;;;;;;-2.57;52.41;102829.52;1902042;75;20155;-56
2022/03/21 00:07:01;;;;;;;;;;;;;;;-2.60;52.38;102825.10;1894465;76;20164;-56
2022/03/21 00:09:28;;;;;;;;;;;;;;;-2.64;52.35;102825.73;1894993;76;20104;-56
2022/03/21 00:11:56;;;;;;;;;;;;;;;-2.65;52.37;102823.98;1894825;76;20194;-56
2022/03/21 00:14:25;;;;;;;;;;;;;;;-2.68;52.27;102825.53;1895150;76;20109;-56
2022/03/21 00:16:52;;;;;;;;;;;;;;;-2.70;52.31;102823.29;1872227;76;20153;-56
2022/03/21 00:19:21;;;;;;;;;;;;;;;-2.70;52.41;102824.58;1862246;77;20111;-57
2022/03/21 00:21:48;;;;;;;;;;;;;;;-2.72;52.40;102822.80;1862020;77;20364;-56
2022/03/21 00:24:16;;;;;;;;;;;;;;;-2.75;52.32;102817.89;1862125;77;20256;-58
2022/03/21 00:26:44;;;;;;;;;;;;;;;-2.80;52.34;102818.97;1862644;75;20173;-57
2022/03/21 00:29:14;;;;;;;;;;;;;;;-2.84;52.33;102806.74;1861569;77;20185;-56
2022/03/21 00:31:44;;;;;;;;;;;;;;;-2.87;52.31;102800.14;1863296;77;20114;-57
2022/03/21 00:34:12;;;;;;;;;;;;;;;-2.89;52.29;102797.89;1862577;77;20119;-56
2022/03/21 00:36:40;;;;;;;;;;;;;;;-2.93;52.24;102795.98;1862380;77;20111;-59
2022/03/21 00:39:08;;;;;;;;;;;;;;;-2.96;52.28;102798.39;1862388;77;20217;-59
2022/03/21 00:41:36;;;;;;;;;;;;;;;-2.99;52.29;102794.36;1874326;75;20146;-61
2022/03/21 00:44:04;;;;;;;;;;;;;;;-3.01;52.29;102793.41;1911689;75;20116;-58
2022/03/21 00:46:31;;;;;;;;;;;;;;;-3.05;52.35;102785.05;1911730;75;20150;-58
2022/03/21 00:48:59;;;;;;;;;;;;;;;-3.08;52.40;102787.09;1893912;75;20107;-58
2022/03/21 00:51:27;;;;;;;;;;;;;;;-3.06;52.47;102787.13;1863254;77;20166;-58
2022/03/21 00:53:55;;;;;;;;;;;;;;;-3.08;52.47;102784.89;1863324;77;20102;-58
2022/03/21 00:56:22;;;;;;;;;;;;;;;-3.09;52.52;102781.84;1863259;77;20110;-58
2022/03/21 00:58:51;;;;;;;;;;;;;;;-3.13;52.49;102778.23;1863282;76;20110;-58
2022/03/21 01:01:19;;;;;;;;;;;;;;;-3.15;52.50;102775.57;1863279;77;20130;-58
2022/03/21 01:03:46;;;;;;;;;;;;;;;-3.16;52.52;102782.81;1863291;77;20106;-58
2022/03/21 01:06:14;;;;;;;;;;;;;;;-3.17;52.54;102778.48;1879074;75;20250;-58
2022/03/21 01:08:42;;;;;;;;;;;;;;;-3.19;52.58;102776.23;1883372;76;20121;-58
2022/03/21 01:11:10;;;;;;;;;;;;;;;-3.20;52.61;102777.03;1884530;74;20417;-59
2022/03/21 01:13:41;;;;;;;;;;;;;;;-3.20;52.62;102772.28;1886942;74;20187;-61
2022/03/21 01:16:07;;;;;;;;;;;;;;;-3.20;52.60;102772.28;1888329;74;20250;-61
2022/03/21 01:18:35;;;;;;;;;;;;;;;-3.19;52.56;102773.66;1901313;74;20104;-60
2022/03/21 01:21:03;;;;;;;;;;;;;;;-3.20;52.61;102770.59;1896758;74;20118;-59
2022/03/21 01:23:31;;;;;;;;;;;;;;;-3.19;52.58;102777.52;1900774;74;20148;-61
2022/03/21 01:25:59;;;;;;;;;;;;;;;-3.17;52.70;102771.12;1907004;74;20122;-61
2022/03/21 01:28:27;;;;;;;;;;;;;;;-3.18;52.83;102771.55;1903304;74;20161;-60
2022/03/21 01:30:54;;;;;;;;;;;;;;;-3.22;52.74;102773.50;1909158;74;20121;-60
2022/03/21 01:33:22;;;;;;;;;;;;;;;-3.25;52.75;102781.06;1901379;74;20118;-62
2022/03/21 01:35:50;;;;;;;;;;;;;;;-3.27;52.79;102773.66;1891709;74;20253;-62
2022/03/21 01:38:18;;;;;;;;;;;;;;;-3.29;53.03;102772.70;1905861;74;20227;-61
2022/03/21 01:40:45;;;;;;;;;;;;;;;-3.27;53.08;102772.78;1899390;74;20156;-59
2022/03/21 01:43:13;;;;;;;;;;;;;;;-3.26;53.07;102775.44;1898379;74;20121;-58
2022/03/21 01:45:41;;;;;;;;;;;;;;;-3.26;53.01;102769.38;1850612;78;20111;-59
2022/03/21 01:48:10;;;;;;;;;;;;;;;-3.30;52.93;102769.66;1862103;76;20113;-57
2022/03/21 01:50:37;;;;;;;;;;;;;;;-3.34;52.88;102769.00;1881821;76;20176;-57
2022/03/21 01:55:51;;;;;;;;;;;;;;;-3.39;52.97;102770.48;1881850;76;20371;-57
2022/03/21 01:58:21;;;;;;;;;;;;;;;-3.41;53.03;102774.27;1881836;76;20148;-57
2022/03/21 02:00:49;;;;;;;;;;;;;;;-3.43;53.10;102776.27;1882727;76;20109;-57
2022/03/21 02:03:18;;;;;;;;;;;;;;;-3.43;53.14;102773.69;1883319;76;20129;-57
2022/03/21 02:05:51;;;;;;;;;;;;;;;-3.46;53.10;102776.13;1876147;76;20159;-57
2022/03/21 02:08:17;;;;;;;;;;;;;;;-3.50;53.18;102781.11;1862599;77;20155;-57
2022/03/21 02:10:45;;;;;;;;;;;;;;;-3.54;53.29;102776.62;1862607;77;20417;-57
2022/03/21 02:13:15;;;;;;;;;;;;;;;-3.55;53.37;102777.41;1862867;77;20104;-54
2022/03/21 02:15:42;;;;;;;;;;;;;;;-3.54;53.30;102775.33;1862793;77;20378;-54
2022/03/21 02:18:11;;;;;;;;;;;;;;;-3.55;53.27;102779.11;1862901;77;20117;-54
2022/03/21 02:20:41;;;;;;;;;;;;;;;-3.61;53.31;102775.81;1862646;77;20108;-55
2022/03/21 02:23:11;;;;;;;;;;;;;;;-3.62;53.38;102774.03;1862692;77;20121;-57
2022/03/21 02:25:43;;;;;;;;;;;;;;;-3.64;53.47;102774.36;1862789;77;20112;-57
2022/03/21 02:28:12;;;;;;;;;;;;;;;-3.65;53.46;102780.33;1862859;77;20155;-57
2022/03/21 02:30:41;;;;;;;;;;;;;;;-3.66;53.46;102773.39;1862674;77;20121;-56
2022/03/21 02:33:10;;;;;;;;;;;;;;;-3.68;53.42;102776.30;1862716;77;20108;-57
2022/03/21 02:35:38;;;;;;;;;;;;;;;-3.72;53.50;102770.10;1862612;77;20155;-56
2022/03/21 02:38:07;;;;;;;;;;;;;;;-3.73;53.63;102772.59;1862610;77;20213;-57
2022/03/21 02:40:35;;;;;;;;;;;;;;;-3.75;53.75;102778.06;1862642;77;20114;-57
2022/03/21 02:43:03;;;;;;;;;;;;;;;-3.78;53.84;102780.47;1862650;77;20149;-56
2022/03/21 02:45:31;;;;;;;;;;;;;;;-3.78;53.92;102776.61;1862794;77;20123;-58
2022/03/21 02:47:58;;;;;;;;;;;;;;;-3.79;54.00;102783.87;1862569;77;20111;-58
2022/03/21 02:50:28;;;;;;;;;;;;;;;-3.78;54.06;102783.05;1862606;77;20217;-56
2022/03/21 02:52:56;;;;;;;;;;;;;;;-3.79;54.17;102783.87;1861762;77;20190;-55
2022/03/21 02:55:24;;;;;;;;;;;;;;;-3.83;54.19;102778.95;1862791;77;20123;-55
2022/03/21 02:57:52;;;;;;;;;;;;;;;-3.82;54.16;102786.27;1862650;77;20166;-56
2022/03/21 03:00:19;;;;;;;;;;;;;;;-3.83;54.30;102785.80;1862737;77;20171;-56
2022/03/21 03:02:47;;;;;;;;;;;;;;;-3.86;54.29;102780.07;1862594;77;20147;-58
2022/03/21 03:05:15;;;;;;;;;;;;;;;-3.91;54.35;102787.56;1862647;77;20259;-58
2022/03/21 03:07:43;;;;;;;;;;;;;;;-3.96;54.40;102786.43;1890300;76;20112;-57
2022/03/21 03:10:11;;;;;;;;;;;;;;;-3.97;54.44;102793.66;1893172;76;20124;-57
2022/03/21 03:12:38;;;;;;;;;;;;;;;-3.95;54.37;102792.45;1893289;76;20497;-57
2022/03/21 03:15:07;;;;;;;;;;;;;;;-3.97;54.43;102791.08;1893176;76;20163;-57
2022/03/21 03:17:35;;;;;;;;;;;;;;;-3.96;54.36;102787.72;1893119;76;20112;-57
2022/03/21 03:20:02;;;;;;;;;;;;;;;-3.97;54.29;102789.79;1893156;76;20108;-57
2022/03/21 03:22:30;;;;;;;;;;;;;;;-3.99;54.39;102782.39;1893246;76;20139;-57
2022/03/21 03:24:58;;;;;;;;;;;;;;;-4.01;54.45;102785.30;1893169;76;20163;-57
2022/03/21 03:27:26;;;;;;;;;;;;;;;-4.07;54.58;102785.85;1893308;76;20382;-57
2022/03/21 03:29:55;;;;;;;;;;;;;;;-4.09;54.63;102787.88;1893131;76;20147;-57
2022/03/21 03:32:24;;;;;;;;;;;;;;;-4.14;54.77;102782.87;1893177;76;20374;-57
2022/03/21 03:34:52;;;;;;;;;;;;;;;-4.11;54.74;102781.34;1893248;76;20117;-57
2022/03/21 03:37:19;;;;;;;;;;;;;;;-4.07;54.64;102786.27;1893151;76;20128;-56
2022/03/21 03:39:47;;;;;;;;;;;;;;;-4.06;54.60;102781.58;1893130;76;20113;-57
2022/03/21 03:42:15;;;;;;;;;;;;;;;-4.02;54.70;102778.39;1893130;76;20155;-57
2022/03/21 03:44:43;;;;;;;;;;;;;;;-3.94;54.86;102774.94;1893136;76;20238;-57
2022/03/21 03:47:15;;;;;;;;;;;;;;;-3.77;54.99;102778.39;1893151;76;20120;-57
2022/03/21 03:49:40;;;;;;;;;;;;;;;-3.52;55.04;102777.58;1892234;76;20120;-59
2022/03/21 03:52:12;;;;;;;;;;;;;;;-3.22;54.89;102774.78;1893178;76;20108;-57
2022/03/21 03:54:37;;;;;;;;;;;;;;;-2.88;54.71;102771.70;1892721;76;20154;-58
2022/03/21 03:57:05;;;;;;;;;;;;;;;-2.56;54.48;102771.55;1893062;76;20116;-59
2022/03/21 03:59:33;;;;;;;;;;;;;;;-2.12;54.41;102774.84;1893140;76;20100;-59
2022/03/21 04:02:00;;;;;;;;;;;;;;;-1.67;54.25;102766.98;1893098;76;20529;-58
2022/03/21 04:04:28;;;;;;;;;;;;;;;-1.17;54.01;102760.91;1893091;76;20163;-59
2022/03/21 04:06:56;;;;;;;;;;;;;;;-0.66;53.87;102765.57;1889967;75;20112;-59
2022/03/21 04:09:24;;;;;;;;;;;;;;;-0.24;53.72;102757.68;1883333;76;20148;-60
2022/03/21 04:11:52;;;;;;;;;;;;;;;0.13;53.70;102752.17;1883383;76;20163;-60
2022/03/21 04:14:20;;;;;;;;;;;;;;;0.57;53.63;102754.55;1883244;76;20109;-59
2022/03/21 04:16:48;;;;;;;;;;;;;;;0.95;53.48;102765.36;1883334;76;20121;-59
2022/03/21 04:19:15;;;;;;;;;;;;;;;1.34;53.39;102758.39;1883247;76;20151;-60
2022/03/21 04:21:43;;;;;;;;;;;;;;;1.71;53.31;102760.81;1883251;76;20116;-59
2022/03/21 04:24:11;;;;;;;;;;;;;;;1.95;53.13;102758.48;1883181;76;20124;-59
2022/03/21 04:26:39;;;;;;;;;;;;;;;2.14;52.98;102762.09;1883284;76;20219;-59
2022/03/21 04:29:10;;;;;;;;;;;;;;;2.29;52.66;102758.60;1883460;76;20176;-60
2022/03/21 04:31:38;;;;;;;;;;;;;;;2.43;52.33;102745.09;1883280;76;20117;-59
2022/03/21 04:34:06;;;;;;;;;;;;;;;2.60;52.00;102751.63;1883182;76;20121;-59
2022/03/21 04:36:33;;;;;;;;;;;;;;;2.77;51.99;102757.27;1883081;76;20159;-58
2022/03/21 04:39:01;;;;;;;;;;;;;;;2.93;51.68;102765.02;1882935;76;20112;-58
2022/03/21 04:41:30;;;;;;;;;;;;;;;3.08;51.39;102768.02;1882116;76;20129;-58
2022/03/21 04:43:58;;;;;;;;;;;;;;;3.31;51.34;102767.69;1882955;76;20116;-57
2022/03/21 04:46:27;;;;;;;;;;;;;;;3.56;51.34;102766.94;1883033;76;20108;-58
2022/03/21 04:48:55;;;;;;;;;;;;;;;3.83;51.11;102768.84;1883113;76;20383;-59
2022/03/21 04:51:22;;;;;;;;;;;;;;;4.00;50.31;102764.41;1882879;76;20109;-58
2022/03/21 04:53:50;;;;;;;;;;;;;;;4.13;50.43;102769.45;1882894;76;20155;-58
2022/03/21 04:56:18;;;;;;;;;;;;;;;4.32;49.58;102772.02;1882882;76;20176;-58
2022/03/21 04:58:46;;;;;;;;;;;;;;;4.40;49.49;102771.73;1882858;76;20147;-58
2022/03/21 05:01:14;;;;;;;;;;;;;;;4.54;48.70;102775.48;1882942;76;20117;-57
2022/03/21 05:03:42;;;;;;;;;;;;;;;4.72;48.09;102774.05;1882865;76;20109;-57
2022/03/21 05:06:09;;;;;;;;;;;;;;;4.83;47.59;102765.98;1883034;76;20206;-58
2022/03/21 05:08:37;;;;;;;;;;;;;;;4.98;46.93;102764.95;1882822;75;20121;-59
2022/03/21 05:11:05;;;;;;;;;;;;;;;5.20;47.48;102762.67;1882908;76;20151;-59
2022/03/21 05:13:32;;;;;;;;;;;;;;;5.48;47.43;102760.47;1883057;76;20151;-58
2022/03/21 05:16:00;;;;;;;;;;;;;;;5.73;46.95;102757.34;1883011;76;20147;-60
2022/03/21 05:18:28;;;;;;;;;;;;;;;6.07;46.77;102763.06;1883024;76;20113;-58
2022/03/21 05:20:56;;;;;;;;;;;;;;;6.33;46.23;102759.87;1883041;76;20116;-59
2022/03/21 05:31:41;;;;;;;;;;;;;;;7.06;42.72;102745.69;1882989;76;20129;-57
2022/03/21 05:36:54;;;;;;;;;;;;;;;7.33;41.63;102747.20;1883095;76;20112;-58
2022/03/21 05:39:23;;;;;;;;;;;;;;;7.50;41.98;102747.73;1883322;76;20148;-58
2022/03/21 05:41:54;;;;;;;;;;;;;;;7.67;40.83;102755.69;1883466;76;20387;-57
2022/03/21 05:44:24;;;;;;;;;;;;;;;7.88;41.46;102755.81;1883422;76;20113;-57
2022/03/21 05:46:52;;;;;;;;;;;;;;;7.98;39.78;102759.34;1883352;76;20156;-57
2022/03/21 05:49:19;;;;;;;;;;;;;;;8.12;39.65;102761.59;1883300;76;20156;-57
2022/03/21 05:51:47;;;;;;;;;;;;;;;8.26;39.35;102762.06;1883282;76;20171;-59
2022/03/21 05:54:15;;;;;;;;;;;;;;;8.41;38.34;102756.88;1883324;76;20105;-59
2022/03/21 05:56:43;;;;;;;;;;;;;;;8.49;37.84;102749.91;1883316;76;20120;-59
2022/03/21 06:01:57;;;;;;;;;;;;;;;8.64;37.74;102752.98;1883283;76;20121;-56
2022/03/21 06:04:25;;;;;;;;;;;;;;;8.86;37.74;102747.31;1883336;76;20117;-57
2022/03/21 06:06:53;;;;;;;;;;;;;;;9.18;38.28;102735.91;1883387;76;20109;-56
2022/03/21 06:09:21;;;;;;;;;;;;;;;9.49;37.88;102737.17;1867274;76;20112;-56
2022/03/21 06:11:52;;;;;;;;;;;;;;;9.78;37.65;102737.53;1865033;76;20112;-56
2022/03/21 06:14:20;;;;;;;;;;;;;;;10.04;36.93;102735.64;1862764;77;20171;-57
2022/03/21 06:16:48;;;;;;;;;;;;;;;10.14;35.71;102725.07;1862599;77;20225;-57
2022/03/21 06:19:18;;;;;;;;;;;;;;;10.35;36.19;102724.12;1862676;77;20116;-57
2022/03/21 06:21:46;;;;;;;;;;;;;;;10.53;36.28;102727.95;1862852;77;20125;-57
2022/03/21 06:24:14;;;;;;;;;;;;;;;10.81;35.51;102722.46;1862614;77;20116;-58
2022/03/21 06:26:42;;;;;;;;;;;;;;;11.10;35.82;102727.48;1862668;77;20121;-58
2022/03/21 06:29:10;;;;;;;;;;;;;;;11.41;35.25;102731.10;1862555;77;20172;-58
2022/03/21 06:31:38;;;;;;;;;;;;;;;11.55;35.17;102723.92;1862680;77;20151;-58
2022/03/21 06:34:06;;;;;;;;;;;;;;;11.74;34.62;102727.66;1862777;77;20358;-58
2022/03/21 06:36:34;;;;;;;;;;;;;;;11.95;34.55;102722.16;1862763;76;20157;-58
2022/03/21 06:39:02;;;;;;;;;;;;;;;12.14;33.28;102720.12;1862677;77;20149;-57
2022/03/21 06:41:30;;;;;;;;;;;;;;;12.24;33.79;102719.53;1862659;77;20165;-58
2022/03/21 06:43:57;;;;;;;;;;;;;;;12.43;33.87;102721.91;1862630;77;20126;-58
2022/03/21 06:46:25;;;;;;;;;;;;;;;12.50;33.13;102728.39;1862669;77;20118;-58
2022/03/21 06:48:53;;;;;;;;;;;;;;;12.48;32.46;102731.50;1862666;77;20127;-58
2022/03/21 06:51:21;;;;;;;;;;;;;;;12.54;31.92;102733.17;1862684;77;20145;-58
2022/03/21 06:53:49;;;;;;;;;;;;;;;12.68;31.83;102721.08;1862676;77;20114;-57
2022/03/21 06:56:16;;;;;;;;;;;;;;;12.82;30.17;102714.23;1862534;77;20118;-58
2022/03/21 06:58:44;;;;;;;;;;;;;;;12.90;30.06;102718.95;1862676;77;20120;-58
2022/03/21 07:01:12;;;;;;;;;;;;;;;13.03;29.51;102711.22;1862616;77;20149;-58
2022/03/21 07:03:40;;;;;;;;;;;;;;;13.36;29.46;102715.51;1862632;77;20169;-59
2022/03/21 07:06:07;;;;;;;;;;;;;;;13.55;28.46;102701.91;1862679;77;20172;-58
2022/03/21 07:08:35;;;;;;;;;;;;;;;13.45;28.71;102709.17;1867281;76;20124;-57
2022/03/21 07:11:03;;;;;;;;;;;;;;;13.29;28.67;102710.73;1883082;75;20191;-58
2022/03/21 07:13:31;;;;;;;;;;;;;;;13.19;28.31;102709.19;1883227;76;20366;-57
2022/03/21 07:15:59;;;;;;;;;;;;;;;13.34;29.12;102709.84;1882983;76;20100;-57
2022/03/21 07:18:26;;;;;;;;;;;;;;;13.67;29.16;102709.61;1883013;76;20159;-58
2022/03/21 07:20:55;;;;;;;;;;;;;;;13.77;28.03;102704.53;1882980;76;20117;-57
2022/03/21 07:23:23;;;;;;;;;;;;;;;13.96;28.48;102709.00;1882888;76;20410;-58
2022/03/21 07:25:50;;;;;;;;;;;;;;;14.36;28.75;102708.53;1883007;76;20171;-58
2022/03/21 07:28:18;;;;;;;;;;;;;;;14.05;26.01;102702.60;1882992;76;20152;-58
2022/03/21 07:33:35;;;;;;;;;;;;;;;13.83;26.17;102703.09;1888691;75;20129;-56
2022/03/21 07:36:03;;;;;;;;;;;;;;;13.65;26.14;102699.05;1888515;76;20402;-56
2022/03/21 07:38:31;;;;;;;;;;;;;;;13.24;26.04;102701.14;1884350;76;20109;-55
2022/03/21 07:40:59;;;;;;;;;;;;;;;13.03;25.85;102703.75;1884416;76;20356;-55
2022/03/21 07:43:27;;;;;;;;;;;;;;;12.86;25.97;102690.38;1884287;76;20117;-55
2022/03/21 07:48:42;;;;;;;;;;;;;;;13.29;25.74;102704.58;1884232;76;20145;-58
2022/03/21 07:51:09;;;;;;;;;;;;;;;13.40;25.08;102701.77;1884513;76;20431;-58
2022/03/21 07:53:38;;;;;;;;;;;;;;;13.54;25.46;102699.72;1884299;76;20117;-58
2022/03/21 07:56:06;;;;;;;;;;;;;;;13.92;25.60;102699.81;1884363;76;20109;-57
2022/03/21 07:58:34;;;;;;;;;;;;;;;14.32;25.15;102705.55;1884292;76;20109;-57
2022/03/21 08:01:02;;;;;;;;;;;;;;;14.39;25.44;102690.78;1884219;76;20152;-58
2022/03/21 08:03:29;;;;;;;;;;;;;;;14.49;24.60;102702.03;1884319;76;20117;-57
2022/03/21 08:05:59;;;;;;;;;;;;;;;14.65;25.10;102698.13;1884333;76;20101;-58
2022/03/21 08:08:27;;;;;;;;;;;;;;;14.99;25.55;102685.77;1884423;76;20113;-59
2022/03/21 08:10:56;;;;;;;;;;;;;;;15.31;24.67;102698.18;1884232;76;20144;-57
2022/03/21 08:13:25;;;;;;;;;;;;;;;15.65;24.70;102687.91;1884207;76;20113;-58
2022/03/21 08:15:53;;;;;;;;;;;;;;;15.83;24.75;102694.04;1884207;76;20412;-57
2022/03/21 08:18:21;;;;;;;;;;;;;;;16.11;23.27;102693.19;1884285;76;20144;-58
2022/03/21 08:20:48;;;;;;;;;;;;;;;16.13;22.82;102679.86;1884263;76;20176;-58
2022/03/21 08:23:16;;;;;;;;;;;;;;;15.72;22.92;102675.34;1884365;76;20113;-58
2022/03/21 08:25:48;;;;;;;;;;;;;;;15.48;23.25;102671.16;1884271;76;20118;-58
2022/03/21 08:28:16;;;;;;;;;;;;;;;15.30;23.46;102668.56;1884260;76;20215;-58
2022/03/21 08:30:43;;;;;;;;;;;;;;;15.60;23.89;102664.17;1884269;76;20153;-59
2022/03/21 08:33:11;;;;;;;;;;;;;;;15.99;23.07;102655.04;1863153;76;20225;-57
2022/03/21 08:35:40;;;;;;;;;;;;;;;15.87;23.21;102647.47;1852298;77;20447;-58
2022/03/21 08:38:09;;;;;;;;;;;;;;;15.66;22.34;102648.95;1847914;77;20173;-58
2022/03/21 08:40:37;;;;;;;;;;;;;;;15.20;22.04;102647.19;1847358;77;20389;-58
2022/03/21 08:43:05;;;;;;;;;;;;;;;14.76;21.79;102643.97;1847166;77;20123;-57
2022/03/21 08:45:33;;;;;;;;;;;;;;;14.52;21.94;102648.09;1847262;78;20149;-58
2022/03/21 08:48:01;;;;;;;;;;;;;;;14.67;21.97;102634.45;1847257;76;20150;-57
2022/03/21 08:50:29;;;;;;;;;;;;;;;14.88;22.64;102633.01;1847306;76;20119;-58
2022/03/21 08:52:58;;;;;;;;;;;;;;;15.04;21.97;102629.02;1847290;77;20111;-58
2022/03/21 08:55:26;;;;;;;;;;;;;;;14.96;21.83;102620.89;1847248;78;20120;-58
2022/03/21 08:57:54;;;;;;;;;;;;;;;15.05;22.23;102622.82;1847335;78;20111;-58
2022/03/21 09:00:22;;;;;;;;;;;;;;;15.31;21.94;102613.25;1847294;78;20115;-60
2022/03/21 09:02:52;;;;;;;;;;;;;;;15.66;22.20;102615.31;1856399;76;20128;-59
2022/03/21 09:05:39;;;;;;;;;;;;;;;16.00;21.86;102608.97;1852100;76;20167;-60
2022/03/21 09:08:08;;;;;;;;;;;;;;;16.35;21.46;102601.62;1852177;77;20146;-61
2022/03/21 09:10:36;;;;;;;;;;;;;;;16.69;21.62;102609.33;1852162;77;20150;-60
2022/03/21 09:13:05;;;;;;;;;;;;;;;16.81;21.30;102600.03;1852215;77;20181;-60
2022/03/21 09:15:34;;;;;;;;;;;;;;;16.64;20.97;102601.09;1869801;75;20418;-61
2022/03/21 09:18:02;;;;;;;;;;;;;;;16.48;21.20;102601.61;1884786;75;20192;-60
2022/03/21 09:20:30;;;;;;;;;;;;;;;16.28;21.52;102596.10;1871147;75;20175;-60
2022/03/21 09:22:58;;;;;;;;;;;;;;;15.94;21.07;102594.56;1869658;75;20124;-60
2022/03/21 09:25:26;;;;;;;;;;;;;;;16.07;21.39;102590.58;1876916;75;20116;-59
2022/03/21 09:27:58;;;;;;;;;;;;;;;16.24;20.96;102593.14;1882786;75;20175;-59
2022/03/21 09:30:29;;;;;;;;;;;;;;;16.18;21.20;102595.08;1900211;75;20462;-59
2022/03/21 09:33:15;;;;;;;;;;;;;;;;;;;;;
2022/03/21 09:35:47;;;;;;;;;;;;;;;15.56;21.24;102587.29;1906558;74;20431;-59
2022/03/21 09:38:23;;;;;;;;;;;;;;;15.39;21.62;102589.99;1914357;75;20445;-59
2022/03/21 09:40:56;;;;;;;;;;;;;;;15.24;21.33;102595.30;1872448;76;20104;-62
2022/03/21 09:43:36;;;;;;;;;;;;;;;15.02;21.18;102584.43;1900224;75;20174;-61
2022/03/21 09:46:07;;;;;;;;;;;;;;;14.87;21.58;102588.85;1909560;74;20160;-59
2022/03/21 09:48:48;;;;;;;;;;;;;;;14.79;21.38;102578.89;1909777;74;20415;-60
2022/03/21 09:51:17;;;;;;;;;;;;;;;14.47;21.33;102574.83;1909028;74;20178;-63
2022/03/21 09:53:46;;;;;;;;;;;;;;;14.17;21.86;102576.50;1909725;75;20212;-59
2022/03/21 09:56:14;;;;;;;;;;;;;;;14.39;22.63;102575.50;1904620;75;20181;-59
2022/03/21 09:58:43;;;;;;;;;;;;;;;14.75;22.73;102577.24;1852384;77;20464;-60
2022/03/21 10:01:14;;;;;;;;;;;;;;;15.01;21.79;102579.16;1854920;73;20280;-70
2022/03/21 10:03:43;;;;;;;;;;;;;;;14.84;21.74;102571.69;1805412;79;20194;-70
2022/03/21 10:09:22;;;;;;;;;;;;;;;15.26;21.99;102564.73;1852033;77;20167;-71
2022/03/21 10:11:51;;;;;;;;;;;;;;;15.63;22.06;102564.48;1872591;73;20142;-61
2022/03/21 10:14:26;;;;;;;;;;;;;;;15.91;21.89;102556.98;1893275;75;20137;-61
2022/03/21 10:16:56;;;;;;;;;;;;;;;16.25;21.93;102558.98;1893126;76;20498;-60
2022/03/21 10:19:23;;;;;;;;;;;;;;;16.60;21.67;102542.69;1887942;76;20378;-61
2022/03/21 10:22:02;;;;;;;;;;;;;;;16.62;21.12;102543.08;1888135;76;20113;-60
2022/03/21 10:24:31;;;;;;;;;;;;;;;16.62;21.66;102541.75;1888057;76;20104;-60
2022/03/21 10:26:59;;;;;;;;;;;;;;;16.57;21.50;102544.59;1887718;76;20108;-61
2022/03/21 10:29:26;;;;;;;;;;;;;;;16.45;21.22;102539.25;1888068;76;20147;-61
2022/03/21 10:31:54;;;;;;;;;;;;;;;16.60;20.57;102526.73;1887987;76;20171;-61
2022/03/21 10:34:23;;;;;;;;;;;;;;;16.92;20.17;102534.02;1888052;76;20121;-60
2022/03/21 10:36:58;;;;;;;;;;;;;;;16.91;18.95;102525.65;1888067;76;20175;-60
2022/03/21 10:39:27;;;;;;;;;;;;;;;16.95;20.01;102527.73;1887581;76;20112;-60
2022/03/21 10:42:02;;;;;;;;;;;;;;;17.21;20.45;102518.75;1888048;76;20183;-61
2022/03/21 10:44:30;;;;;;;;;;;;;;;17.13;19.49;102523.48;1888061;76;20404;-60
2022/03/21 10:46:59;;;;;;;;;;;;;;;17.04;20.12;102508.77;1888023;76;20128;-61
2022/03/21 10:49:31;;;;;;;;;;;;;;;17.10;20.41;102503.66;1888273;76;20424;-60
2022/03/21 10:52:00;;;;;;;;;;;;;;;16.86;19.71;102506.32;1888079;76;20117;-60
2022/03/21 10:54:41;;;;;;;;;;;;;;;16.53;19.88;102503.94;1888063;76;20151;-60
2022/03/21 10:57:10;;;;;;;;;;;;;;;16.30;20.14;102496.77;1887980;76;20176;-60
2022/03/21 10:59:38;;;;;;;;;;;;;;;15.98;20.32;102489.45;1884589;76;20108;-61
2022/03/21 11:02:13;;;;;;;;;;;;;;;15.94;20.79;102485.64;1881863;76;20142;-62
2022/03/21 11:04:44;;;;;;;;;;;;;;;15.96;20.98;102482.47;1861656;77;20170;-61
2022/03/21 11:07:13;;;;;;;;;;;;;;;15.81;20.68;102475.42;1883312;76;20149;-62
2022/03/21 11:09:41;;;;;;;;;;;;;;;15.81;21.20;102464.80;1893233;74;20133;-61
2022/03/21 11:12:10;;;;;;;;;;;;;;;15.99;21.17;102470.39;1884285;76;20146;-61
2022/03/21 11:14:40;;;;;;;;;;;;;;;15.92;21.41;102466.23;1857133;76;20403;-61
2022/03/21 11:17:08;;;;;;;;;;;;;;;15.83;21.50;102457.64;1857152;77;20434;-62
2022/03/21 11:19:36;;;;;;;;;;;;;;;15.49;21.69;102458.31;1857169;77;20142;-60
2022/03/21 11:22:04;;;;;;;;;;;;;;;15.22;21.87;102463.59;1856950;76;20200;-60
2022/03/21 11:24:34;;;;;;;;;;;;;;;15.03;22.20;102458.85;1857064;77;20146;-61
2022/03/21 11:27:20;;;;;;;;;;;;;;;15.01;22.27;102463.77;1857031;76;20142;-61
2022/03/21 11:29:52;;;;;;;;;;;;;;;15.03;22.31;102458.85;1856654;77;20173;-62
2022/03/21 11:32:24;;;;;;;;;;;;;;;14.83;22.57;102447.98;1845004;77;20126;-63
2022/03/21 11:34:56;;;;;;;;;;;;;;;14.54;22.40;102439.04;1845021;77;20185;-61
2022/03/21 11:37:25;;;;;;;;;;;;;;;14.22;22.76;102439.92;1855449;77;20138;-60
2022/03/21 11:40:11;;;;;;;;;;;;;;;13.99;23.09;102449.36;1857165;77;20146;-61
2022/03/21 11:42:39;;;;;;;;;;;;;;;13.86;23.28;102440.86;1856966;77;20146;-59
2022/03/21 11:45:27;;;;;;;;;;;;;;;13.71;23.41;102442.59;1857417;76;20189;-60
2022/03/21 11:48:13;;;;;;;;;;;;;;;13.56;23.28;102435.89;1826598;79;20394;-61
2022/03/21 11:51:11;;;;;;;;;;;;;;;13.39;23.48;102436.73;1854511;76;20119;-61
2022/03/21 11:53:47;;;;;;;;;;;;;;;13.16;23.86;102430.65;1854515;77;20127;-60
2022/03/21 11:56:18;;;;;;;;;;;;;;;13.17;23.87;102433.27;1861824;76;20544;-60
2022/03/21 11:58:46;;;;;;;;;;;;;;;13.12;23.52;102429.84;1863110;76;20135;-60
2022/03/21 12:01:15;;;;;;;;;;;;;;;13.01;23.59;102426.12;1864095;76;20260;-60
2022/03/21 12:03:43;;;;;;;;;;;;;;;12.99;23.81;102425.28;1860332;76;20281;-60
2022/03/21 12:06:26;;;;;;;;;;;;;;;13.07;23.91;102422.46;1861177;76;20169;-60
2022/03/21 12:08:52;;;;;;;;;;;;;;;13.19;24.09;102414.72;1869862;76;20145;-60
2022/03/21 12:11:48;;;;;;;;;;;;;;;13.12;23.92;102409.55;1854346;76;20119;-61
2022/03/21 12:14:46;;;;;;;;;;;;;;;13.02;23.84;102408.47;1851243;77;20119;-61
2022/03/21 12:17:05;;;;;;;;;;;;;;;12.88;24.17;102399.54;1858024;75;20149;-62
2022/03/21 12:19:58;;;;;;;;;;;;;;;12.83;24.37;102397.44;1865544;76;20103;-62
2022/03/21 12:22:36;;;;;;;;;;;;;;;12.71;24.55;102395.48;1859310;76;20119;-63
2022/03/21 12:25:11;;;;;;;;;;;;;;;12.49;24.08;102388.47;1853483;77;20119;-62
2022/03/21 12:27:58;;;;;;;;;;;;;;;12.23;24.60;102390.74;1861626;76;20144;-61
2022/03/21 12:30:30;;;;;;;;;;;;;;;12.06;24.89;102392.39;1878363;76;20188;-64
2022/03/21 12:33:05;;;;;;;;;;;;;;;11.90;25.15;102380.81;1878346;76;20133;-72
2022/03/21 12:35:42;;;;;;;;;;;;;;;11.69;25.30;102385.11;1873843;76;20145;-80
2022/03/21 12:38:18;;;;;;;;;;;;;;;11.63;25.35;102390.50;1867519;76;20395;-77
2022/03/21 12:40:52;;;;;;;;;;;;;;;11.61;25.42;102381.75;1877905;76;20129;-62
2022/03/21 12:43:30;;;;;;;;;;;;;;;11.52;25.42;102380.13;1878223;75;20414;-61
2022/03/21 12:46:16;;;;;;;;;;;;;;;11.43;25.47;102382.92;1875498;76;20140;-61
2022/03/21 12:48:43;;;;;;;;;;;;;;;11.38;25.61;102386.97;1876615;76;20141;-61
2022/03/21 12:51:13;;;;;;;;;;;;;;;11.34;25.49;102383.93;1878039;76;20441;-60
2022/03/21 12:53:56;;;;;;;;;;;;;;;;;;;;;
2022/03/21 12:56:33;;;;;;;;;;;;;;;11.24;25.40;102377.94;1953111;73;20194;-63
2022/03/21 13:01:51;;;;;;;;;;;;;;;11.23;25.78;102374.00;1917296;74;20121;-63
2022/03/21 13:12:41;;;;;;;;;;;;;;;10.90;26.05;102364.38;1933401;73;20107;-65
2022/03/21 13:15:10;;;;;;;;;;;;;;;10.79;26.45;102357.98;1952411;73;20141;-63
2022/03/21 13:17:54;;;;;;;;;;;;;;;10.73;26.44;102359.36;1953242;73;20387;-62
2022/03/21 13:20:27;;;;;;;;;;;;;;;10.72;26.60;102355.86;1952317;73;20142;-68
2022/03/21 13:22:55;;;;;;;;;;;;;;;10.67;26.62;102355.50;1952979;73;20119;-61
2022/03/21 13:25:24;;;;;;;;;;;;;;;10.61;26.51;102352.50;1952412;73;20183;-61
2022/03/21 13:27:52;;;;;;;;;;;;;;;10.54;26.34;102356.11;1952983;73;20119;-61
2022/03/21 13:30:20;;;;;;;;;;;;;;;10.51;26.55;102343.86;1952993;73;20098;-61